This is the latest recevied weather packets stored in our database for station/object YO4TNV-15. If no packets are shown the sender has not sent any weather packets the latest 10 day(s).
| Time | Temp. | Humidity | Pressure | Rain* | Wind** | Luminosity | Snow |
|---|---|---|---|---|---|---|---|
| 1777511246 | 6.11° C | 46% | 1010.6 hPa | - | - | - | - |
| 1777511238 | 6.11° C | 46% | 1010.6 hPa | - | - | - | - |
| 1777510346 | 6.67° C | 46% | 1010.6 hPa | - | - | - | - |
| 1777510338 | 6.67° C | 46% | 1010.6 hPa | - | - | - | - |
| 1777509446 | 6.67° C | 45% | 1010.5 hPa | - | - | - | - |
| 1777509437 | 6.67° C | 45% | 1010.5 hPa | - | - | - | - |
| 1777508547 | 7.22° C | 45% | 1010.7 hPa | - | - | - | - |
| 1777508537 | 7.22° C | 45% | 1010.7 hPa | - | - | - | - |
| 1777506737 | 7.78° C | 44% | 1010.6 hPa | - | - | - | - |
| 1777505837 | 7.78° C | 45% | 1010.5 hPa | - | - | - | - |
| 1777504937 | 8.33° C | 51% | 1010.6 hPa | - | - | - | - |
| 1777504037 | 7.78° C | 55% | 1010.4 hPa | - | - | - | - |
| 1777503136 | 8.33° C | 49% | 1010.5 hPa | - | - | - | - |
| 1777502236 | 8.33° C | 53% | 1010.4 hPa | - | - | - | - |
| 1777501336 | 8.33° C | 52% | 1010.4 hPa | - | - | - | - |
| 1777500436 | 9.44° C | 48% | 1010.5 hPa | - | - | - | - |
| 1777499536 | 9.44° C | 46% | 1010.3 hPa | - | - | - | - |
| 1777498636 | 10° C | 40% | 1010.4 hPa | - | - | - | - |
| 1777497735 | 10° C | 38% | 1010.4 hPa | - | - | - | - |
| 1777496835 | 10° C | 41% | 1010.3 hPa | - | - | - | - |
| 1777495935 | 10° C | 40% | 1010.3 hPa | - | - | - | - |
| 1777495035 | 10° C | 40% | 1010.2 hPa | - | - | - | - |
| 1777494135 | 10° C | 40% | 1010.1 hPa | - | - | - | - |
| 1777493235 | 10° C | 37% | 1009.8 hPa | - | - | - | - |
| 1777492334 | 10° C | 35% | 1009.8 hPa | - | - | - | - |
* Rain since midnight (hover to see other rain measurements)
** Current wind speed in m/s (hover to see current wind gust speed)